Time;durP1;ratioP1;P1;durP2;ratioP2;P2;SDS_P1;SDS_P2;PMS_P1;PMS_P2;Temp;Humidity;BMP_temperature;BMP_pressure;BME280_temperature;BME280_humidity;BME280_pressure;Samples;Min_cycle;Max_cycle;Signal;HPM_P1;HPM_P2
2022/11/29 00:00:08;;;;;;;61.47;30.13;;;;;;;;;;5014679;28;20034;-75
2022/11/29 00:02:34;;;;;;;71.38;32.03;;;;;;;;;;5018571;28;20426;-73
2022/11/29 00:05:00;;;;;;;65.20;31.33;;;;;;;;;;5019414;28;20026;-75
2022/11/29 00:07:26;;;;;;;64.65;30.13;;;;;;;;;;5017455;28;20026;-75
2022/11/29 00:09:52;;;;;;;64.93;31.05;;;;;;;;;;5018887;28;20072;-75
2022/11/29 00:12:18;;;;;;;65.57;30.85;;;;;;;;;;5018948;28;20467;-74
2022/11/29 00:14:44;;;;;;;76.53;34.20;;;;;;;;;;5020303;28;20497;-74
2022/11/29 00:17:10;;;;;;;64.07;32.15;;;;;;;;;;5019204;28;20117;-75
2022/11/29 00:19:36;;;;;;;66.22;32.17;;;;;;;;;;5019229;28;20030;-74
2022/11/29 00:22:02;;;;;;;68.47;33.55;;;;;;;;;;5018712;28;20029;-74
2022/11/29 00:24:31;;;;;;;72.78;34.13;;;;;;;;;;5020429;28;20052;-74
2022/11/29 00:26:57;;;;;;;73.47;34.60;;;;;;;;;;5023502;28;20418;-77
2022/11/29 00:29:23;;;;;;;72.75;35.10;;;;;;;;;;5021112;28;20046;-74
2022/11/29 00:31:49;;;;;;;85.03;36.50;;;;;;;;;;5021212;28;20033;-76
2022/11/29 00:34:14;;;;;;;74.18;34.40;;;;;;;;;;5020760;28;20137;-74
2022/11/29 00:36:41;;;;;;;74.05;35.05;;;;;;;;;;5018548;28;20030;-75
2022/11/29 00:39:10;;;;;;;70.95;33.50;;;;;;;;;;5017125;28;20113;-73
2022/11/29 00:41:36;;;;;;;94.32;37.47;;;;;;;;;;5015692;28;20018;-75
2022/11/29 00:44:02;;;;;;;78.68;35.90;;;;;;;;;;5016413;28;20018;-74
2022/11/29 00:46:28;;;;;;;76.75;35.78;;;;;;;;;;5017214;28;20045;-75
2022/11/29 00:48:54;;;;;;;72.72;33.72;;;;;;;;;;5017709;28;20048;-74
2022/11/29 00:51:20;;;;;;;81.05;37.10;;;;;;;;;;5017650;28;20036;-74
2022/11/29 00:53:46;;;;;;;78.40;36.50;;;;;;;;;;5021527;28;20030;-75
2022/11/29 00:56:12;;;;;;;80.18;36.97;;;;;;;;;;5030669;28;20037;-75
2022/11/29 00:58:38;;;;;;;76.32;36.63;;;;;;;;;;5034323;28;20030;-78
2022/11/29 01:01:05;;;;;;;74.43;35.40;;;;;;;;;;5028892;28;20046;-76
2022/11/29 01:03:31;;;;;;;76.50;36.50;;;;;;;;;;5017770;28;20022;-73
2022/11/29 01:06:01;;;;;;;79.15;37.47;;;;;;;;;;5011689;28;20076;-75
2022/11/29 01:08:27;;;;;;;79.07;36.47;;;;;;;;;;5013369;28;20028;-75
2022/11/29 01:11:07;;;;;;;79.53;37.13;;;;;;;;;;5016871;28;20022;-74
2022/11/29 01:13:33;;;;;;;78.43;37.70;;;;;;;;;;5016067;28;20104;-75
2022/11/29 01:15:59;;;;;;;83.47;37.95;;;;;;;;;;5016747;28;20030;-74
2022/11/29 01:18:25;;;;;;;83.10;38.40;;;;;;;;;;5015617;28;20419;-75
2022/11/29 01:20:55;;;;;;;78.00;37.25;;;;;;;;;;5018306;28;20041;-74
2022/11/29 01:23:21;;;;;;;78.78;39.42;;;;;;;;;;5014582;28;20387;-74
2022/11/29 01:25:55;;;;;;;85.85;39.00;;;;;;;;;;5016645;28;20029;-74
2022/11/29 01:28:20;;;;;;;82.75;38.67;;;;;;;;;;5014958;28;20025;-76
2022/11/29 01:30:46;;;;;;;83.22;41.50;;;;;;;;;;5015538;28;20033;-76
2022/11/29 01:33:12;;;;;;;83.90;38.97;;;;;;;;;;5015346;28;20110;-77
2022/11/29 01:35:38;;;;;;;89.43;40.55;;;;;;;;;;5013928;28;20465;-75
2022/11/29 01:38:04;;;;;;;83.28;39.40;;;;;;;;;;5015580;28;20105;-75
2022/11/29 01:40:30;;;;;;;87.50;41.55;;;;;;;;;;5014235;28;20172;-73
2022/11/29 01:42:56;;;;;;;84.45;39.95;;;;;;;;;;5014983;28;20065;-75
2022/11/29 01:45:24;;;;;;;88.22;40.90;;;;;;;;;;5014857;28;20033;-74
2022/11/29 01:47:52;;;;;;;86.63;39.88;;;;;;;;;;5014915;28;20553;-75
2022/11/29 01:50:18;;;;;;;85.05;41.72;;;;;;;;;;5015493;28;20026;-75
2022/11/29 01:52:45;;;;;;;81.18;40.63;;;;;;;;;;5018563;28;20036;-75
2022/11/29 01:55:11;;;;;;;86.05;40.45;;;;;;;;;;5017019;28;20033;-74
2022/11/29 01:57:39;;;;;;;90.38;42.38;;;;;;;;;;5014321;28;20034;-75
2022/11/29 02:00:08;;;;;;;90.22;41.20;;;;;;;;;;5015000;28;20272;-75
2022/11/29 02:02:36;;;;;;;88.00;41.88;;;;;;;;;;5013426;28;20026;-74
2022/11/29 02:05:03;;;;;;;97.10;41.42;;;;;;;;;;5014842;28;20098;-74
2022/11/29 02:07:29;;;;;;;93.53;42.03;;;;;;;;;;5011195;28;20025;-75
2022/11/29 02:09:55;;;;;;;86.68;42.15;;;;;;;;;;5014437;28;20483;-76
2022/11/29 02:12:40;;;;;;;94.63;42.63;;;;;;;;;;5012552;28;20479;-75
2022/11/29 02:15:23;;;;;;;90.68;41.22;;;;;;;;;;5012458;28;20025;-75
2022/11/29 02:17:52;;;;;;;97.70;43.05;;;;;;;;;;5013675;28;20026;-77
2022/11/29 02:20:37;;;;;;;95.90;43.55;;;;;;;;;;5012844;28;20045;-75
2022/11/29 02:23:18;;;;;;;92.07;41.28;;;;;;;;;;5013272;28;20026;-75
2022/11/29 02:25:59;;;;;;;94.40;43.67;;;;;;;;;;5013345;28;20018;-74
2022/11/29 02:28:25;;;;;;;97.40;43.28;;;;;;;;;;5012860;28;20065;-74
2022/11/29 02:31:12;;;;;;;91.47;43.72;;;;;;;;;;5013245;28;20416;-78
2022/11/29 02:33:44;;;;;;;92.78;44.92;;;;;;;;;;5012788;28;20022;-75
2022/11/29 02:36:13;;;;;;;89.25;43.60;;;;;;;;;;5012896;28;20097;-75
2022/11/29 02:38:48;;;;;;;97.00;43.35;;;;;;;;;;5013280;28;20431;-75
2022/11/29 02:41:33;;;;;;;96.28;44.20;;;;;;;;;;5013362;28;20030;-75
2022/11/29 02:44:18;;;;;;;94.22;40.72;;;;;;;;;;5013234;28;20026;-75
2022/11/29 02:46:46;;;;;;;95.97;43.83;;;;;;;;;;5011681;28;20022;-75
2022/11/29 02:49:38;;;;;;;96.35;44.33;;;;;;;;;;5014983;28;20034;-76
2022/11/29 02:52:03;;;;;;;103.75;44.97;;;;;;;;;;5019456;28;20029;-74
2022/11/29 02:54:29;;;;;;;98.97;45.05;;;;;;;;;;5018245;28;20384;-74
2022/11/29 02:57:04;;;;;;;104.85;45.08;;;;;;;;;;5020902;28;20030;-75
2022/11/29 02:59:42;;;;;;;95.63;44.47;;;;;;;;;;5019301;28;20104;-74
2022/11/29 03:02:16;;;;;;;110.03;45.97;;;;;;;;;;5018480;28;20045;-74
2022/11/29 03:04:52;;;;;;;93.82;43.20;;;;;;;;;;5020505;28;20022;-75
2022/11/29 03:07:36;;;;;;;102.13;44.35;;;;;;;;;;5013582;28;20034;-76
2022/11/29 03:10:02;;;;;;;97.18;44.40;;;;;;;;;;5013093;28;20029;-74
2022/11/29 03:12:37;;;;;;;92.07;44.55;;;;;;;;;;5012301;28;20030;-75
2022/11/29 03:15:18;;;;;;;90.57;44.20;;;;;;;;;;5013377;28;20368;-75
2022/11/29 03:18:02;;;;;;;96.65;44.53;;;;;;;;;;5012470;28;20116;-74
2022/11/29 03:20:28;;;;;;;98.50;44.60;;;;;;;;;;5013731;28;20430;-75
2022/11/29 03:22:57;;;;;;;102.63;45.50;;;;;;;;;;5012553;28;20030;-76
2022/11/29 03:25:29;;;;;;;97.07;44.53;;;;;;;;;;5010265;28;20030;-78
2022/11/29 03:28:06;;;;;;;104.53;45.60;;;;;;;;;;5012450;28;20075;-75
2022/11/29 03:30:34;;;;;;;103.85;45.30;;;;;;;;;;5013489;28;20072;-74
2022/11/29 03:33:06;;;;;;;99.57;44.83;;;;;;;;;;5022635;28;20056;-76
2022/11/29 03:35:52;;;;;;;103.43;44.67;;;;;;;;;;5035808;28;20018;-78
2022/11/29 03:38:37;;;;;;;92.78;43.25;;;;;;;;;;5033251;28;20094;-78
2022/11/29 03:41:03;;;;;;;;;;;;;;;;;;5032857;28;20098;-75
2022/11/29 03:43:33;;;;;;;103.40;46.20;;;;;;;;;;5031341;28;19905;-76
2022/11/29 03:46:05;;;;;;;96.93;44.88;;;;;;;;;;5030561;28;20105;-75
2022/11/29 03:48:34;;;;;;;104.05;46.75;;;;;;;;;;5053608;23;20048;-71
2022/11/29 03:51:07;;;;;;;103.82;45.65;;;;;;;;;;5032602;28;20034;-71
2022/11/29 03:53:35;;;;;;;106.30;47.20;;;;;;;;;;5033106;28;20462;-71
2022/11/29 03:56:02;;;;;;;105.00;45.88;;;;;;;;;;5032052;28;20032;-71
2022/11/29 03:58:54;;;;;;;101.95;47.40;;;;;;;;;;5032498;28;20390;-71
2022/11/29 04:01:39;;;;;;;107.65;48.33;;;;;;;;;;5032590;28;20421;-72
2022/11/29 04:04:04;;;;;;;107.25;47.10;;;;;;;;;;5032490;28;20028;-74
2022/11/29 04:06:53;;;;;;;109.18;46.58;;;;;;;;;;5032068;28;20275;-71
2022/11/29 04:09:19;;;;;;;107.65;46.55;;;;;;;;;;5033050;28;20061;-75
2022/11/29 04:11:58;;;;;;;107.43;48.10;;;;;;;;;;5033270;28;20267;-75
2022/11/29 04:14:29;;;;;;;104.70;45.90;;;;;;;;;;5033102;28;20029;-75
2022/11/29 04:17:11;;;;;;;102.88;47.17;;;;;;;;;;5031176;28;20033;-75
2022/11/29 04:19:52;;;;;;;104.80;46.67;;;;;;;;;;5034039;28;20022;-75
2022/11/29 04:22:42;;;;;;;101.70;46.72;;;;;;;;;;5044759;28;20028;-75
2022/11/29 04:25:17;;;;;;;100.47;45.97;;;;;;;;;;5052323;28;20017;-75
2022/11/29 04:27:50;;;;;;;103.15;46.10;;;;;;;;;;5033261;28;20476;-75
2022/11/29 04:30:18;;;;;;;116.72;48.42;;;;;;;;;;5031412;28;20379;-75
2022/11/29 04:32:44;;;;;;;99.35;47.35;;;;;;;;;;5032768;28;20108;-74
2022/11/29 04:35:22;;;;;;;100.60;46.20;;;;;;;;;;5034079;28;20077;-70
2022/11/29 04:37:54;;;;;;;114.55;48.28;;;;;;;;;;5033197;28;20029;-69
2022/11/29 04:40:31;;;;;;;109.85;47.92;;;;;;;;;;5030802;28;20061;-69
2022/11/29 04:43:10;;;;;;;108.50;48.67;;;;;;;;;;5036007;28;20029;-70
2022/11/29 04:45:57;;;;;;;102.45;47.05;;;;;;;;;;5036286;28;20089;-70
2022/11/29 04:48:30;;;;;;;105.57;48.42;;;;;;;;;;5045680;28;20110;-71
2022/11/29 04:51:07;;;;;;;112.00;50.13;;;;;;;;;;5047067;28;20033;-72
2022/11/29 04:53:51;;;;;;;107.57;46.97;;;;;;;;;;5036485;28;20112;-70
2022/11/29 04:56:38;;;;;;;110.13;49.38;;;;;;;;;;5036495;28;20477;-73
2022/11/29 04:59:24;;;;;;;109.43;47.72;;;;;;;;;;5026495;28;20034;-70
2022/11/29 05:02:13;;;;;;;108.82;49.38;;;;;;;;;;5037580;28;20022;-71
2022/11/29 05:04:39;;;;;;;109.88;49.40;;;;;;;;;;5034485;28;20050;-71
2022/11/29 05:07:17;;;;;;;106.78;47.78;;;;;;;;;;5037391;28;20037;-71
2022/11/29 05:10:02;;;;;;;114.63;47.85;;;;;;;;;;5036769;28;20044;-70
2022/11/29 05:12:27;;;;;;;113.78;47.97;;;;;;;;;;5036674;28;20104;-70
2022/11/29 05:14:54;;;;;;;116.70;49.03;;;;;;;;;;5040618;28;20123;-71
2022/11/29 05:17:30;;;;;;;109.53;49.35;;;;;;;;;;5048335;28;20028;-70
2022/11/29 05:19:58;;;;;;;116.05;48.58;;;;;;;;;;5048451;28;20522;-70
2022/11/29 05:22:30;;;;;;;117.68;52.15;;;;;;;;;;5036776;28;20072;-71
2022/11/29 05:24:56;;;;;;;119.57;51.78;;;;;;;;;;5036201;28;20037;-71
2022/11/29 05:27:29;;;;;;;126.22;52.25;;;;;;;;;;5036530;28;20029;-70
2022/11/29 05:30:02;;;;;;;113.35;50.03;;;;;;;;;;5041988;28;20033;-70
2022/11/29 05:32:31;;;;;;;107.53;49.42;;;;;;;;;;5040442;28;20037;-70
2022/11/29 05:34:57;;;;;;;115.57;50.00;;;;;;;;;;5038179;28;20052;-71
2022/11/29 05:37:29;;;;;;;108.50;49.65;;;;;;;;;;5050558;28;20045;-70
2022/11/29 05:40:07;;;;;;;112.18;50.22;;;;;;;;;;5047691;28;20029;-71
2022/11/29 05:42:52;;;;;;;121.18;50.92;;;;;;;;;;5046180;28;20022;-74
2022/11/29 05:45:24;;;;;;;111.07;50.63;;;;;;;;;;5047450;28;20056;-69
2022/11/29 05:47:57;;;;;;;111.10;49.38;;;;;;;;;;5044428;28;20079;-70
2022/11/29 05:50:43;;;;;;;118.30;50.55;;;;;;;;;;5037099;28;20429;-72
2022/11/29 05:53:24;;;;;;;113.93;50.65;;;;;;;;;;5036428;28;20040;-70
2022/11/29 05:55:50;;;;;;;115.72;50.05;;;;;;;;;;5034410;28;20032;-70
2022/11/29 05:58:22;;;;;;;111.18;49.78;;;;;;;;;;5035793;28;20104;-70
2022/11/29 06:00:48;;;;;;;113.85;49.03;;;;;;;;;;5035699;28;20032;-70
2022/11/29 06:03:32;;;;;;;113.03;50.15;;;;;;;;;;5035495;28;20386;-70
2022/11/29 06:06:00;;;;;;;111.93;51.10;;;;;;;;;;5034667;28;20417;-72
2022/11/29 06:08:39;;;;;;;108.90;49.25;;;;;;;;;;5035385;28;20531;-70
2022/11/29 06:11:14;;;;;;;110.28;49.67;;;;;;;;;;5035456;28;20478;-70
2022/11/29 06:13:58;;;;;;;113.97;49.53;;;;;;;;;;5035789;28;20413;-70
2022/11/29 06:16:24;;;;;;;117.25;50.65;;;;;;;;;;5035327;28;20028;-71
2022/11/29 06:19:00;;;;;;;115.88;51.53;;;;;;;;;;5035447;28;20037;-71
2022/11/29 06:21:39;;;;;;;115.10;51.25;;;;;;;;;;5037946;28;20036;-70
2022/11/29 06:24:05;;;;;;;111.63;49.72;;;;;;;;;;5036091;28;20029;-70
2022/11/29 06:26:43;;;;;;;117.10;51.60;;;;;;;;;;5035252;28;20033;-70
2022/11/29 06:29:12;;;;;;;125.13;52.40;;;;;;;;;;5031634;28;20029;-71
2022/11/29 06:31:43;;;;;;;113.68;50.88;;;;;;;;;;5037202;28;20029;-71
2022/11/29 06:34:09;;;;;;;113.78;50.85;;;;;;;;;;5037556;28;20041;-70
2022/11/29 06:36:50;;;;;;;121.13;51.72;;;;;;;;;;5038026;28;20022;-70
2022/11/29 06:39:16;;;;;;;123.78;53.35;;;;;;;;;;5034011;28;20029;-71
2022/11/29 06:41:42;;;;;;;116.45;52.15;;;;;;;;;;5035806;28;20037;-71
2022/11/29 06:44:09;;;;;;;128.35;54.30;;;;;;;;;;5039474;28;20057;-70
2022/11/29 06:46:55;;;;;;;121.72;54.13;;;;;;;;;;5034589;28;20029;-71
2022/11/29 06:49:26;;;;;;;123.57;52.97;;;;;;;;;;5034600;28;20057;-70
2022/11/29 06:52:11;;;;;;;115.20;52.17;;;;;;;;;;5034831;28;20035;-72
2022/11/29 06:54:55;;;;;;;116.22;53.28;;;;;;;;;;5027134;28;20025;-72
2022/11/29 06:57:28;;;;;;;127.82;55.38;;;;;;;;;;5049573;28;20034;-73
2022/11/29 07:00:10;;;;;;;122.50;54.75;;;;;;;;;;5040548;28;20099;-71
2022/11/29 07:02:51;;;;;;;124.75;54.55;;;;;;;;;;5037376;28;20045;-73
2022/11/29 07:05:30;;;;;;;122.78;54.08;;;;;;;;;;5035145;28;20033;-73
2022/11/29 07:08:00;;;;;;;112.25;51.35;;;;;;;;;;5034492;28;20030;-73
2022/11/29 07:10:26;;;;;;;115.90;52.85;;;;;;;;;;5036787;28;20026;-72
2022/11/29 07:12:52;;;;;;;118.05;54.65;;;;;;;;;;5040419;28;20075;-75
2022/11/29 07:15:20;;;;;;;117.88;53.20;;;;;;;;;;5034358;28;20034;-73
2022/11/29 07:17:56;;;;;;;111.18;52.88;;;;;;;;;;5034089;28;20059;-72
2022/11/29 07:20:28;;;;;;;118.68;52.58;;;;;;;;;;5034287;28;20073;-75
2022/11/29 07:23:10;;;;;;;117.95;53.03;;;;;;;;;;5051925;28;20040;-72
2022/11/29 07:25:42;;;;;;;126.32;52.97;;;;;;;;;;5030184;28;20517;-74
2022/11/29 07:28:08;;;;;;;120.63;54.00;;;;;;;;;;5037687;28;20101;-72
2022/11/29 07:30:38;;;;;;;124.00;54.95;;;;;;;;;;5040615;28;20490;-72
2022/11/29 07:33:11;;;;;;;117.97;53.35;;;;;;;;;;5034400;28;20029;-72
2022/11/29 07:36:03;;;;;;;119.57;52.95;;;;;;;;;;5035619;28;20069;-71
2022/11/29 07:38:48;;;;;;;109.65;51.78;;;;;;;;;;5035627;28;20644;-74
2022/11/29 07:41:20;;;;;;;117.05;55.22;;;;;;;;;;5039599;28;20057;-71
2022/11/29 07:43:51;;;;;;;117.35;53.63;;;;;;;;;;5033137;28;20025;-72
2022/11/29 07:46:17;;;;;;;110.22;51.08;;;;;;;;;;5033906;28;20025;-72
2022/11/29 07:48:43;;;;;;;121.57;53.22;;;;;;;;;;5035390;28;20052;-73
2022/11/29 07:51:10;;;;;;;122.95;53.47;;;;;;;;;;5036096;28;20033;-72
2022/11/29 07:53:41;;;;;;;120.40;53.05;;;;;;;;;;5048266;28;20037;-72
2022/11/29 07:56:08;;;;;;;126.82;53.80;;;;;;;;;;5049149;28;20079;-71
2022/11/29 07:58:34;;;;;;;127.43;56.92;;;;;;;;;;5053197;28;20033;-72
2022/11/29 08:01:01;;;;;;;131.00;56.65;;;;;;;;;;5051792;28;20030;-71
2022/11/29 08:03:27;;;;;;;119.95;54.05;;;;;;;;;;5052664;28;20025;-71
2022/11/29 08:05:52;;;;;;;141.93;62.75;;;;;;;;;;5038693;28;20018;-71
2022/11/29 08:08:18;;;;;;;121.22;55.38;;;;;;;;;;5036468;28;20036;-71
2022/11/29 08:10:44;;;;;;;117.28;53.35;;;;;;;;;;5034566;28;20079;-72
2022/11/29 08:13:10;;;;;;;116.38;53.15;;;;;;;;;;5037166;28;20061;-73
2022/11/29 08:15:36;;;;;;;111.25;52.25;;;;;;;;;;5034442;28;20025;-72
2022/11/29 08:18:03;;;;;;;111.28;51.03;;;;;;;;;;5036085;28;20035;-72
2022/11/29 08:20:29;;;;;;;122.38;52.72;;;;;;;;;;5035779;28;20026;-72
2022/11/29 08:22:58;;;;;;;111.95;51.10;;;;;;;;;;5035023;28;20071;-72
2022/11/29 08:25:25;;;;;;;121.40;52.58;;;;;;;;;;5034287;28;20037;-72
2022/11/29 08:27:51;;;;;;;108.40;51.17;;;;;;;;;;5033807;28;20479;-72
2022/11/29 08:30:20;;;;;;;112.93;52.85;;;;;;;;;;5034975;28;20350;-72
2022/11/29 08:32:46;;;;;;;115.88;53.15;;;;;;;;;;5034172;28;20017;-74
2022/11/29 08:35:12;;;;;;;119.22;56.42;;;;;;;;;;5034600;28;20052;-72
2022/11/29 08:37:38;;;;;;;109.30;51.88;;;;;;;;;;5034558;28;20033;-72
2022/11/29 08:40:04;;;;;;;116.90;53.90;;;;;;;;;;5035038;28;20040;-72
2022/11/29 08:42:30;;;;;;;116.22;53.45;;;;;;;;;;5034107;28;20049;-72
2022/11/29 08:44:56;;;;;;;107.22;50.58;;;;;;;;;;5034800;28;20410;-72
2022/11/29 08:47:35;;;;;;;110.35;51.67;;;;;;;;;;5033949;28;22173;-72
2022/11/29 08:50:01;;;;;;;112.78;52.17;;;;;;;;;;5033087;28;20034;-71
2022/11/29 08:55:13;;;;;;;118.35;53.03;;;;;;;;;;5034354;28;20103;-72
2022/11/29 08:57:39;;;;;;;116.93;53.97;;;;;;;;;;5032161;28;20075;-73
2022/11/29 09:00:05;;;;;;;128.45;59.38;;;;;;;;;;5033441;28;20536;-72
2022/11/29 09:02:31;;;;;;;115.18;56.85;;;;;;;;;;5033283;28;20570;-72
2022/11/29 09:04:57;;;;;;;121.80;56.25;;;;;;;;;;5033111;28;20025;-73
2022/11/29 09:07:23;;;;;;;110.78;52.67;;;;;;;;;;5032259;28;20025;-73
2022/11/29 09:09:49;;;;;;;110.95;51.53;;;;;;;;;;5032654;28;20038;-72
2022/11/29 09:12:15;;;;;;;113.57;52.80;;;;;;;;;;5033001;28;20041;-72
2022/11/29 09:14:41;;;;;;;109.50;53.00;;;;;;;;;;5033579;28;20078;-72
2022/11/29 09:17:07;;;;;;;112.65;53.17;;;;;;;;;;5034422;28;20026;-72
2022/11/29 09:19:33;;;;;;;111.22;52.65;;;;;;;;;;5036742;28;20382;-71
2022/11/29 09:21:59;;;;;;;112.22;51.33;;;;;;;;;;5035750;28;20072;-73
2022/11/29 09:24:25;;;;;;;106.03;51.33;;;;;;;;;;5040553;28;20026;-73
2022/11/29 09:26:51;;;;;;;104.03;51.88;;;;;;;;;;5042558;28;20026;-72
2022/11/29 09:29:17;;;;;;;113.63;53.55;;;;;;;;;;5038311;28;20025;-72
2022/11/29 09:31:46;;;;;;;121.20;52.70;;;;;;;;;;5049479;28;20056;-73
2022/11/29 09:34:15;;;;;;;109.18;51.85;;;;;;;;;;5042175;28;20030;-74
2022/11/29 09:36:43;;;;;;;112.47;52.25;;;;;;;;;;5036319;28;20025;-75
2022/11/29 09:39:11;;;;;;;114.15;52.40;;;;;;;;;;5036145;28;20022;-72
2022/11/29 09:41:52;;;;;;;111.90;51.92;;;;;;;;;;5036560;28;20014;-73
2022/11/29 09:44:18;;;;;;;111.22;52.45;;;;;;;;;;5037201;28;20030;-71
2022/11/29 09:46:44;;;;;;;115.18;52.28;;;;;;;;;;5042200;28;20021;-72
2022/11/29 09:49:32;;;;;;;108.70;51.75;;;;;;;;;;5042356;28;20098;-71
2022/11/29 09:52:02;;;;;;;116.57;51.28;;;;;;;;;;5036904;28;20032;-73
2022/11/29 09:54:28;;;;;;;107.07;49.08;;;;;;;;;;5036692;28;20516;-72
2022/11/29 09:56:55;;;;;;;111.47;52.85;;;;;;;;;;5035562;28;20030;-72
2022/11/29 09:59:26;;;;;;;114.95;54.40;;;;;;;;;;5036151;28;20025;-72
2022/11/29 10:01:54;;;;;;;108.18;50.67;;;;;;;;;;5036196;28;20024;-72
2022/11/29 10:04:26;;;;;;;110.72;53.20;;;;;;;;;;5032876;28;20501;-72
2022/11/29 10:06:58;;;;;;;117.15;52.35;;;;;;;;;;5035980;28;20109;-71
2022/11/29 10:09:40;;;;;;;115.05;53.83;;;;;;;;;;5037233;28;20026;-71
2022/11/29 10:12:13;;;;;;;109.90;54.03;;;;;;;;;;5039907;28;20056;-72
2022/11/29 10:14:45;;;;;;;115.82;52.83;;;;;;;;;;5054268;28;20052;-71
2022/11/29 10:17:25;;;;;;;113.53;53.17;;;;;;;;;;5056975;28;20063;-72
2022/11/29 10:19:54;;;;;;;112.00;53.42;;;;;;;;;;5056002;28;20024;-72
2022/11/29 10:22:19;;;;;;;114.20;53.22;;;;;;;;;;5052937;28;20031;-71
2022/11/29 10:24:48;;;;;;;111.60;53.88;;;;;;;;;;5054545;28;20037;-72
2022/11/29 10:27:22;;;;;;;114.95;53.58;;;;;;;;;;5034389;28;20079;-72
2022/11/29 10:29:50;;;;;;;111.32;53.88;;;;;;;;;;5035158;28;20014;-72
2022/11/29 10:32:18;;;;;;;111.15;53.70;;;;;;;;;;5034816;28;20017;-72
2022/11/29 10:34:45;;;;;;;123.10;56.08;;;;;;;;;;5034691;28;20021;-71
2022/11/29 10:37:13;;;;;;;115.75;52.55;;;;;;;;;;5034205;28;20490;-71
2022/11/29 10:39:48;;;;;;;105.72;51.60;;;;;;;;;;5033542;28;20022;-72
2022/11/29 10:45:01;;;;;;;117.43;54.63;;;;;;;;;;5036289;28;20507;-72
2022/11/29 10:47:27;;;;;;;115.00;53.28;;;;;;;;;;5035917;28;20029;-71
2022/11/29 10:49:53;;;;;;;119.38;54.40;;;;;;;;;;5036868;28;20034;-70
2022/11/29 10:52:20;;;;;;;113.88;55.25;;;;;;;;;;5038273;28;20483;-70
2022/11/29 10:54:48;;;;;;;115.45;54.80;;;;;;;;;;5035345;28;20036;-70
2022/11/29 10:57:15;;;;;;;111.20;52.67;;;;;;;;;;5035924;28;20034;-71
2022/11/29 10:59:41;;;;;;;113.30;54.35;;;;;;;;;;5042275;28;20032;-72
2022/11/29 11:02:19;;;;;;;116.90;55.03;;;;;;;;;;5045081;28;20048;-72
2022/11/29 11:04:47;;;;;;;108.50;53.10;;;;;;;;;;5038350;28;20104;-70
2022/11/29 11:07:24;;;;;;;111.25;53.03;;;;;;;;;;5034238;28;20025;-72
2022/11/29 11:09:52;;;;;;;112.22;55.38;;;;;;;;;;5034916;28;20092;-72
2022/11/29 11:12:20;;;;;;;112.68;53.15;;;;;;;;;;5035947;28;20034;-72
2022/11/29 11:14:46;;;;;;;120.80;54.92;;;;;;;;;;5036610;28;20029;-73
2022/11/29 11:17:21;;;;;;;112.57;52.70;;;;;;;;;;5035893;28;20033;-71
2022/11/29 11:19:55;;;;;;;105.68;51.85;;;;;;;;;;5034802;28;20029;-72
2022/11/29 11:22:22;;;;;;;114.63;54.33;;;;;;;;;;5034983;28;20099;-72
2022/11/29 11:24:55;;;;;;;115.57;53.40;;;;;;;;;;5034555;28;20018;-71
2022/11/29 11:27:34;;;;;;;106.15;53.13;;;;;;;;;;5034005;28;20029;-71
2022/11/29 11:30:01;;;;;;;106.55;54.08;;;;;;;;;;5035318;28;20030;-71
2022/11/29 11:32:27;;;;;;;112.78;54.60;;;;;;;;;;5034935;28;20644;-72
2022/11/29 11:34:57;;;;;;;117.30;55.15;;;;;;;;;;5035360;28;20117;-72
2022/11/29 11:37:23;;;;;;;115.88;54.72;;;;;;;;;;5033023;28;20033;-72
2022/11/29 11:39:51;;;;;;;110.03;55.10;;;;;;;;;;5035402;28;20032;-72
2022/11/29 11:42:38;;;;;;;116.60;54.00;;;;;;;;;;5035820;28;20113;-71
2022/11/29 11:45:06;;;;;;;116.38;54.92;;;;;;;;;;5036786;28;20018;-72
2022/11/29 11:47:35;;;;;;;109.05;53.30;;;;;;;;;;5039692;28;20029;-71
2022/11/29 11:50:01;;;;;;;113.45;55.47;;;;;;;;;;5046231;28;20049;-72
2022/11/29 11:52:33;;;;;;;113.30;55.65;;;;;;;;;;5053322;28;20044;-71
2022/11/29 11:55:01;;;;;;;115.43;55.35;;;;;;;;;;5048551;28;20029;-72
2022/11/29 11:57:28;;;;;;;123.10;56.67;;;;;;;;;;5035372;28;20064;-72
2022/11/29 11:59:55;;;;;;;118.95;57.13;;;;;;;;;;5037910;28;20576;-71
2022/11/29 12:02:25;;;;;;;119.82;57.78;;;;;;;;;;5035878;28;20068;-71
2022/11/29 12:04:52;;;;;;;126.03;59.40;;;;;;;;;;5048735;28;20029;-73
2022/11/29 12:07:24;;;;;;;121.55;57.03;;;;;;;;;;5044424;28;20029;-72
2022/11/29 12:09:59;;;;;;;117.53;55.90;;;;;;;;;;5034457;28;20092;-72
2022/11/29 12:12:40;;;;;;;128.90;57.25;;;;;;;;;;5034466;28;20037;-72
2022/11/29 12:15:19;;;;;;;125.95;56.80;;;;;;;;;;5035288;28;20105;-73
2022/11/29 12:17:48;;;;;;;121.18;56.33;;;;;;;;;;5034833;28;20036;-72
2022/11/29 12:20:33;;;;;;;118.18;57.92;;;;;;;;;;5034826;28;20096;-73
2022/11/29 12:23:08;;;;;;;123.50;58.50;;;;;;;;;;5034702;28;20103;-72
2022/11/29 12:25:39;;;;;;;115.75;56.78;;;;;;;;;;5035218;28;20032;-72
2022/11/29 12:28:10;;;;;;;132.90;59.20;;;;;;;;;;5034019;28;20056;-72
2022/11/29 12:30:36;;;;;;;118.18;57.05;;;;;;;;;;5036002;28;20040;-72
2022/11/29 12:33:09;;;;;;;129.32;58.80;;;;;;;;;;5034693;28;20033;-70
2022/11/29 12:35:35;;;;;;;123.28;57.83;;;;;;;;;;5035502;28;20029;-70
2022/11/29 12:38:15;;;;;;;118.30;55.53;;;;;;;;;;5039810;28;20060;-72
2022/11/29 12:40:44;;;;;;;117.38;55.65;;;;;;;;;;5033378;28;20029;-72
2022/11/29 12:43:25;;;;;;;126.25;58.45;;;;;;;;;;5036315;28;20025;-72
2022/11/29 12:45:57;;;;;;;122.45;56.42;;;;;;;;;;5037870;28;20076;-71
2022/11/29 12:48:23;;;;;;;137.15;65.85;;;;;;;;;;5037125;28;20059;-72
2022/11/29 12:50:58;;;;;;;163.85;81.60;;;;;;;;;;5037767;28;20538;-72
2022/11/29 12:53:24;;;;;;;122.90;58.22;;;;;;;;;;5034259;28;20100;-73
2022/11/29 12:56:06;;;;;;;120.10;57.10;;;;;;;;;;5033582;28;20064;-71
2022/11/29 12:58:51;;;;;;;125.93;60.17;;;;;;;;;;5033417;28;20032;-72
2022/11/29 13:01:24;;;;;;;125.45;57.33;;;;;;;;;;5031005;28;20053;-71
2022/11/29 13:03:55;;;;;;;115.03;56.90;;;;;;;;;;5034336;28;20479;-72
2022/11/29 13:06:24;;;;;;;122.25;57.40;;;;;;;;;;5036949;28;20080;-69
2022/11/29 13:09:00;;;;;;;122.88;57.40;;;;;;;;;;5033643;28;20049;-73
2022/11/29 13:11:35;;;;;;;124.20;58.97;;;;;;;;;;5037191;28;20022;-71
2022/11/29 13:14:21;;;;;;;120.65;59.38;;;;;;;;;;5040250;28;20029;-71
2022/11/29 13:16:50;;;;;;;132.35;60.95;;;;;;;;;;5039877;28;20033;-72
2022/11/29 13:19:35;;;;;;;130.52;60.67;;;;;;;;;;5039017;28;20096;-74
2022/11/29 13:22:07;;;;;;;131.65;60.55;;;;;;;;;;5037975;28;20030;-72
2022/11/29 13:24:45;;;;;;;131.13;60.90;;;;;;;;;;5037728;28;20033;-72
2022/11/29 13:27:15;;;;;;;133.68;61.65;;;;;;;;;;5038132;28;20467;-72
2022/11/29 13:29:42;;;;;;;139.35;64.90;;;;;;;;;;5039294;28;20056;-72
2022/11/29 13:32:10;;;;;;;132.75;62.78;;;;;;;;;;5038539;28;20100;-73
2022/11/29 13:34:42;;;;;;;136.13;62.03;;;;;;;;;;5038092;28;20375;-70
2022/11/29 13:37:17;;;;;;;134.50;61.58;;;;;;;;;;5036270;28;20075;-73
2022/11/29 13:40:02;;;;;;;128.75;60.03;;;;;;;;;;5041685;28;20560;-74
2022/11/29 13:42:28;;;;;;;126.82;60.85;;;;;;;;;;5038507;28;20025;-73
2022/11/29 13:45:09;;;;;;;132.30;59.38;;;;;;;;;;5043072;28;20025;-73
2022/11/29 13:47:47;;;;;;;132.43;60.70;;;;;;;;;;5041168;28;20021;-73
2022/11/29 13:50:25;;;;;;;128.70;59.15;;;;;;;;;;5043957;28;20022;-73
2022/11/29 13:53:01;;;;;;;140.77;62.92;;;;;;;;;;5040767;28;20148;-73
2022/11/29 13:55:28;;;;;;;129.23;58.63;;;;;;;;;;5037060;28;20033;-73
2022/11/29 13:57:58;;;;;;;122.57;58.50;;;;;;;;;;5037607;28;20021;-72
2022/11/29 14:00:35;;;;;;;127.93;58.38;;;;;;;;;;5036141;28;20394;-73
2022/11/29 14:03:39;;;;;;;136.40;60.40;;;;;;;;;;5036685;28;20029;-74
2022/11/29 14:06:12;;;;;;;133.95;58.38;;;;;;;;;;5039890;28;20044;-72
2022/11/29 14:08:56;;;;;;;138.73;61.28;;;;;;;;;;5043968;28;20037;-74
2022/11/29 14:11:33;;;;;;;135.38;59.92;;;;;;;;;;5035913;28;20042;-74
2022/11/29 14:14:04;;;;;;;136.88;62.13;;;;;;;;;;5034874;28;20029;-77
2022/11/29 14:16:42;;;;;;;129.90;61.10;;;;;;;;;;5034401;28;20021;-74
2022/11/29 14:19:08;;;;;;;133.77;60.80;;;;;;;;;;5035504;28;20030;-73
2022/11/29 14:21:53;;;;;;;137.43;61.20;;;;;;;;;;5035303;28;20521;-74
2022/11/29 14:24:38;;;;;;;132.05;60.17;;;;;;;;;;5034401;28;20028;-74
2022/11/29 14:27:11;;;;;;;132.38;61.20;;;;;;;;;;5034622;28;20029;-73
2022/11/29 14:29:49;;;;;;;135.68;61.65;;;;;;;;;;5035341;28;20026;-74
2022/11/29 14:32:34;;;;;;;130.32;62.25;;;;;;;;;;5036931;28;20462;-74
2022/11/29 14:35:00;;;;;;;136.00;62.63;;;;;;;;;;5041259;28;20395;-74
2022/11/29 14:37:29;;;;;;;138.48;62.08;;;;;;;;;;5035722;28;20033;-74
2022/11/29 14:39:56;;;;;;;134.90;63.53;;;;;;;;;;5046473;28;20025;-73